createdAt,value
2022-12-04T00:01:24.066Z,47.20
2022-12-04T00:03:54.432Z,43.27
2022-12-04T00:06:23.211Z,48.97
2022-12-04T00:08:52.337Z,43.47
2022-12-04T00:11:22.368Z,46.23
2022-12-04T00:13:50.626Z,47.03
2022-12-04T00:16:22.005Z,50.03
2022-12-04T00:18:50.374Z,50.43
2022-12-04T00:21:19.981Z,50.10
2022-12-04T00:23:48.568Z,47.57
2022-12-04T00:26:18.713Z,48.57
2022-12-04T00:28:47.318Z,49.57
2022-12-04T00:31:18.994Z,48.23
2022-12-04T00:33:48.659Z,49.20
2022-12-04T00:36:19.101Z,51.70
2022-12-04T00:38:47.454Z,52.43
2022-12-04T00:41:17.572Z,51.97
2022-12-04T00:43:45.995Z,52.90
2022-12-04T00:46:15.954Z,56.50
2022-12-04T00:48:44.797Z,59.67
2022-12-04T00:51:17.281Z,57.43
2022-12-04T00:53:45.729Z,57.73
2022-12-04T00:56:18.550Z,55.43
2022-12-04T00:58:47.250Z,58.40
2022-12-04T01:01:16.979Z,57.07
2022-12-04T01:03:45.368Z,59.37
2022-12-04T01:06:21.842Z,54.03
2022-12-04T01:08:50.637Z,57.40
2022-12-04T01:11:19.641Z,55.60
2022-12-04T01:13:48.136Z,51.20
2022-12-04T01:16:21.530Z,58.07
2022-12-04T01:18:49.909Z,56.37
2022-12-04T01:21:20.208Z,57.57
2022-12-04T01:23:48.238Z,57.37
2022-12-04T01:26:16.662Z,56.60
2022-12-04T01:28:44.730Z,59.70
2022-12-04T01:31:15.041Z,52.97
2022-12-04T01:33:44.176Z,56.53
2022-12-04T01:36:13.671Z,57.77
2022-12-04T01:38:43.678Z,59.23
2022-12-04T01:41:14.278Z,59.27
2022-12-04T01:43:43.076Z,56.07
2022-12-04T01:46:12.366Z,61.93
2022-12-04T01:48:45.234Z,57.70
2022-12-04T01:51:18.713Z,57.57
2022-12-04T01:53:51.825Z,56.50
2022-12-04T01:56:21.865Z,60.33
2022-12-04T01:58:53.506Z,57.57
2022-12-04T02:01:21.893Z,60.33
2022-12-04T02:03:50.335Z,57.90
2022-12-04T02:06:18.485Z,56.37
2022-12-04T02:08:47.981Z,62.13
2022-12-04T02:11:26.071Z,60.43
2022-12-04T02:14:02.560Z,59.73
2022-12-04T02:16:38.720Z,58.53
2022-12-04T02:19:22.551Z,57.83
2022-12-04T02:21:56.777Z,60.90
2022-12-04T02:24:46.758Z,60.97
2022-12-04T02:27:33.282Z,59.63
2022-12-04T02:30:06.480Z,57.10
2022-12-04T02:32:40.713Z,59.70
2022-12-04T02:35:14.464Z,61.77
2022-12-04T02:37:46.860Z,60.67
2022-12-04T02:40:22.555Z,59.63
2022-12-04T02:42:56.403Z,60.00
2022-12-04T02:45:32.365Z,57.33
2022-12-04T02:48:03.290Z,63.87
2022-12-04T02:50:34.204Z,59.23
2022-12-04T02:53:06.915Z,56.80
2022-12-04T02:55:40.291Z,55.47
2022-12-04T02:58:12.140Z,61.27
2022-12-04T03:00:43.361Z,60.30
2022-12-04T03:03:17.897Z,61.40
2022-12-04T03:05:52.733Z,57.33
2022-12-04T03:08:25.191Z,58.57
2022-12-04T03:10:56.551Z,60.77
2022-12-04T03:13:30.143Z,60.83
2022-12-04T03:16:05.675Z,64.63
2022-12-04T03:18:38.916Z,60.20
2022-12-04T03:21:11.056Z,63.10
2022-12-04T03:23:43.765Z,58.30
2022-12-04T03:26:17.494Z,61.67
2022-12-04T03:28:53.908Z,60.87
2022-12-04T03:31:31.074Z,63.57
2022-12-04T03:34:03.866Z,59.87
2022-12-04T03:36:35.761Z,59.07
2022-12-04T03:39:12.872Z,65.17
2022-12-04T03:41:58.117Z,61.90
2022-12-04T03:44:31.817Z,58.23
2022-12-04T03:47:05.655Z,67.23
2022-12-04T03:49:42.233Z,61.83
2022-12-04T03:52:15.490Z,62.73
2022-12-04T03:54:48.037Z,56.90
2022-12-04T03:57:20.128Z,57.70
2022-12-04T03:59:56.079Z,58.80
2022-12-04T04:02:29.672Z,58.47
2022-12-04T04:05:00.988Z,61.73
2022-12-04T04:07:36.017Z,61.10
2022-12-04T04:10:08.721Z,59.73
2022-12-04T04:12:39.928Z,59.13
2022-12-04T04:15:30.360Z,64.47
2022-12-04T04:18:15.179Z,61.47
2022-12-04T04:21:03.304Z,62.57
2022-12-04T04:23:52.668Z,66.17
2022-12-04T04:26:21.190Z,62.27
2022-12-04T04:28:49.378Z,64.10
2022-12-04T04:31:24.380Z,59.20
2022-12-04T04:33:59.965Z,60.70
2022-12-04T04:36:39.012Z,62.03
2022-12-04T04:39:14.605Z,61.80
2022-12-04T04:41:48.140Z,62.90
2022-12-04T04:44:21.176Z,65.23
2022-12-04T04:46:54.521Z,62.40
2022-12-04T04:49:27.273Z,62.87
2022-12-04T04:51:56.172Z,63.90
2022-12-04T04:54:25.208Z,62.03
2022-12-04T04:56:53.243Z,63.63
2022-12-04T04:59:21.217Z,60.47
2022-12-04T05:01:49.571Z,63.60
2022-12-04T05:04:17.701Z,62.93
2022-12-04T05:06:48.916Z,64.77
2022-12-04T05:09:16.928Z,65.87
2022-12-04T05:11:44.939Z,61.73
2022-12-04T05:14:12.903Z,66.60
2022-12-04T05:16:41.691Z,66.40
2022-12-04T05:19:27.395Z,65.17
2022-12-04T05:21:57.577Z,68.10
2022-12-04T05:24:25.668Z,59.93
2022-12-04T05:26:53.660Z,58.90
2022-12-04T05:29:21.724Z,66.10
2022-12-04T05:31:49.738Z,62.63
2022-12-04T05:34:17.775Z,63.87
2022-12-04T05:36:45.758Z,65.37
2022-12-04T05:39:15.422Z,65.53
2022-12-04T05:41:43.428Z,68.07
2022-12-04T05:44:11.499Z,64.53
2022-12-04T05:46:39.547Z,62.50
2022-12-04T05:49:07.655Z,62.00
2022-12-04T05:51:35.709Z,59.60
2022-12-04T05:54:03.688Z,64.87
2022-12-04T05:56:33.066Z,58.47
2022-12-04T05:59:01.077Z,62.30
2022-12-04T06:01:29.125Z,59.67
2022-12-04T06:03:57.134Z,66.13
2022-12-04T06:06:26.642Z,59.87
2022-12-04T06:08:56.977Z,60.33
2022-12-04T06:11:27.021Z,60.30
2022-12-04T06:13:57.673Z,60.23
2022-12-04T06:16:27.775Z,60.53
2022-12-04T06:18:59.257Z,60.03
2022-12-04T06:21:29.112Z,59.97
2022-12-04T06:23:57.829Z,59.13
2022-12-04T06:26:26.604Z,59.87
2022-12-04T06:28:56.847Z,58.93
2022-12-04T06:31:25.975Z,57.77
2022-12-04T06:33:54.889Z,57.07
2022-12-04T06:36:23.374Z,57.50
2022-12-04T06:38:52.548Z,59.30
2022-12-04T06:41:22.148Z,56.63
2022-12-04T06:43:51.797Z,53.97
2022-12-04T06:46:23.649Z,58.60
2022-12-04T06:48:52.230Z,55.87
2022-12-04T06:51:23.020Z,55.80
2022-12-04T06:53:51.682Z,55.07
2022-12-04T06:56:22.028Z,55.00
2022-12-04T06:58:52.139Z,55.60
2022-12-04T07:01:24.521Z,57.03
2022-12-04T07:03:53.020Z,53.80
2022-12-04T07:06:23.080Z,56.40
2022-12-04T07:08:53.096Z,52.43
2022-12-04T07:11:22.463Z,55.67
2022-12-04T07:13:51.333Z,52.47
2022-12-04T07:16:23.990Z,56.33
2022-12-04T07:18:53.872Z,51.67
2022-12-04T07:21:23.883Z,51.40
2022-12-04T07:23:53.263Z,51.30
2022-12-04T07:26:22.149Z,50.77
2022-12-04T07:28:50.461Z,55.67
2022-12-04T07:31:20.640Z,52.07
2022-12-04T07:33:50.857Z,53.90
2022-12-04T07:36:20.608Z,53.97
2022-12-04T07:38:48.969Z,53.90
2022-12-04T07:41:17.548Z,49.37
2022-12-04T07:43:45.955Z,53.97
2022-12-04T07:46:15.873Z,52.17
2022-12-04T07:48:44.541Z,54.87
2022-12-04T07:51:16.097Z,52.43
2022-12-04T07:53:44.572Z,53.20
2022-12-04T07:56:13.742Z,49.93
2022-12-04T07:58:42.155Z,52.53
2022-12-04T08:01:12.446Z,51.27
2022-12-04T08:03:46.832Z,47.53
2022-12-04T08:06:18.550Z,50.27
2022-12-04T08:08:46.997Z,48.57
2022-12-04T08:11:17.904Z,47.70
2022-12-04T08:13:46.144Z,48.80
2022-12-04T08:16:15.569Z,46.07
2022-12-04T08:18:48.445Z,47.73
2022-12-04T08:21:20.658Z,49.20
2022-12-04T08:23:50.137Z,49.40
2022-12-04T08:26:18.637Z,47.77
2022-12-04T08:28:47.272Z,46.43
2022-12-04T08:31:17.749Z,49.47
2022-12-04T08:33:46.956Z,47.80
2022-12-04T08:36:19.241Z,46.27
2022-12-04T08:38:47.432Z,45.73
2022-12-04T08:41:17.262Z,44.80
2022-12-04T08:43:45.700Z,44.20
2022-12-04T08:46:15.823Z,47.37
2022-12-04T08:48:44.317Z,45.60
2022-12-04T08:51:15.095Z,45.23
2022-12-04T08:53:44.897Z,42.70
2022-12-04T08:56:13.342Z,45.23
2022-12-04T08:58:41.524Z,43.53
2022-12-04T09:01:11.459Z,47.17
2022-12-04T09:03:40.070Z,45.70
2022-12-04T09:06:10.057Z,45.27
2022-12-04T09:08:38.910Z,51.67
2022-12-04T09:11:11.212Z,51.53
2022-12-04T09:13:40.273Z,48.00
2022-12-04T09:16:10.806Z,42.73
2022-12-04T09:18:39.548Z,48.70
2022-12-04T09:21:09.940Z,46.53
2022-12-04T09:23:39.549Z,43.80
2022-12-04T09:26:19.463Z,45.53
2022-12-04T09:28:47.711Z,46.90
2022-12-04T09:31:16.034Z,46.17
2022-12-04T09:33:44.346Z,46.10
2022-12-04T09:36:16.137Z,43.27
2022-12-04T09:38:45.442Z,39.00
2022-12-04T09:41:30.533Z,39.77
2022-12-04T09:44:03.332Z,41.80
2022-12-04T09:46:35.229Z,38.53
2022-12-04T09:49:08.086Z,38.27
2022-12-04T09:51:38.534Z,39.73
2022-12-04T09:54:11.985Z,37.83
2022-12-04T09:56:44.591Z,39.53
2022-12-04T09:59:16.127Z,35.77
2022-12-04T10:01:48.335Z,36.10
2022-12-04T10:04:17.204Z,34.53
2022-12-04T10:06:50.346Z,34.63
2022-12-04T10:09:23.260Z,34.97
2022-12-04T10:12:00.961Z,37.30
2022-12-04T10:14:47.867Z,37.10
2022-12-04T10:17:33.007Z,36.97
2022-12-04T10:20:12.832Z,37.13
2022-12-04T10:22:54.768Z,35.30
2022-12-04T10:25:24.636Z,34.43
2022-12-04T10:27:57.371Z,36.13
2022-12-04T10:30:27.851Z,38.33
2022-12-04T10:33:04.497Z,38.17
2022-12-04T10:35:34.259Z,38.57
2022-12-04T10:38:06.141Z,36.23
2022-12-04T10:40:38.938Z,37.17
2022-12-04T10:43:18.560Z,38.40
2022-12-04T10:45:46.576Z,35.83
2022-12-04T10:48:22.404Z,40.80
2022-12-04T10:50:50.495Z,37.73
2022-12-04T10:53:22.098Z,39.57
2022-12-04T10:55:50.133Z,41.17
2022-12-04T10:58:21.051Z,38.97
2022-12-04T11:01:02.829Z,35.40
2022-12-04T11:03:31.099Z,39.70
2022-12-04T11:06:02.040Z,36.93
2022-12-04T11:08:36.344Z,41.63
2022-12-04T11:11:07.260Z,39.47
2022-12-04T11:13:36.629Z,38.90
2022-12-04T11:16:06.393Z,36.93
2022-12-04T11:18:36.581Z,35.97
2022-12-04T11:21:08.172Z,39.70
2022-12-04T11:23:44.324Z,39.57
2022-12-04T11:26:13.248Z,38.50
2022-12-04T11:28:55.208Z,38.27
2022-12-04T11:31:24.113Z,37.73
2022-12-04T11:33:55.136Z,35.67
2022-12-04T11:36:25.828Z,35.37
2022-12-04T11:39:03.693Z,34.93
2022-12-04T11:41:33.506Z,36.80
2022-12-04T11:44:02.860Z,35.77
2022-12-04T11:46:34.201Z,37.37
2022-12-04T11:49:03.407Z,38.73
2022-12-04T11:51:44.393Z,37.07
2022-12-04T11:54:24.815Z,37.73
2022-12-04T11:57:04.734Z,38.57
2022-12-04T11:59:51.476Z,36.13
2022-12-04T12:02:57.975Z,38.23
2022-12-04T12:05:43.581Z,36.17
2022-12-04T12:08:22.235Z,38.03
2022-12-04T12:10:59.172Z,34.70
2022-12-04T12:13:36.724Z,40.70
2022-12-04T12:16:17.433Z,40.47
2022-12-04T12:19:08.691Z,43.10
2022-12-04T12:21:44.993Z,39.27
2022-12-04T12:24:25.921Z,40.13
2022-12-04T12:27:05.280Z,44.60
2022-12-04T12:29:48.068Z,44.60
2022-12-04T12:32:37.224Z,45.00
2022-12-04T12:35:14.407Z,47.30
2022-12-04T12:37:47.294Z,45.17
2022-12-04T12:40:24.246Z,47.50
2022-12-04T12:42:58.750Z,43.67
2022-12-04T12:45:34.747Z,44.93
2022-12-04T12:48:10.817Z,47.50
2022-12-04T12:50:44.639Z,44.57
2022-12-04T12:53:17.832Z,45.53
2022-12-04T12:55:48.873Z,45.90
2022-12-04T12:58:22.357Z,45.70
2022-12-04T13:00:57.460Z,49.57
2022-12-04T13:03:33.912Z,46.13
2022-12-04T13:06:07.217Z,46.17
2022-12-04T13:08:38.993Z,47.87
2022-12-04T13:11:11.601Z,45.27
2022-12-04T13:13:45.536Z,47.60
2022-12-04T13:16:18.679Z,45.43
2022-12-04T13:18:52.348Z,47.73
2022-12-04T13:21:31.989Z,42.60
2022-12-04T13:24:44.793Z,48.43
2022-12-04T13:27:23.641Z,52.77
2022-12-04T13:30:04.643Z,48.13
2022-12-04T13:32:48.981Z,47.27
2022-12-04T13:35:27.844Z,46.07
2022-12-04T13:38:13.700Z,48.53
2022-12-04T13:40:43.277Z,43.67
2022-12-04T13:43:39.754Z,45.07
2022-12-04T13:46:09.903Z,43.70
2022-12-04T13:48:40.859Z,42.27
2022-12-04T13:51:25.163Z,41.33
2022-12-04T13:54:24.851Z,43.60
2022-12-04T13:56:54.337Z,43.23
2022-12-04T13:59:35.025Z,43.97
2022-12-04T14:02:08.359Z,45.53
2022-12-04T14:04:45.524Z,47.77
2022-12-04T14:07:27.358Z,44.77
2022-12-04T14:09:57.967Z,44.97
2022-12-04T14:12:28.297Z,46.20
2022-12-04T14:14:59.198Z,48.23
2022-12-04T14:17:29.701Z,41.90
2022-12-04T14:20:04.300Z,46.80
2022-12-04T14:22:44.576Z,46.23
2022-12-04T14:25:35.698Z,47.33
2022-12-04T14:28:23.825Z,51.80
2022-12-04T14:31:04.359Z,47.23
2022-12-04T14:33:35.014Z,46.77
2022-12-04T14:36:05.460Z,46.90
2022-12-04T14:38:35.526Z,50.97
2022-12-04T14:41:05.717Z,45.27
2022-12-04T14:43:39.559Z,50.13
2022-12-04T14:46:15.847Z,49.63
2022-12-04T14:48:54.000Z,50.50
2022-12-04T14:51:29.757Z,46.70
2022-12-04T14:54:07.316Z,46.43
2022-12-04T14:56:52.035Z,46.50
2022-12-04T14:59:22.347Z,50.17
2022-12-04T15:01:52.476Z,44.73
2022-12-04T15:04:26.552Z,51.00
2022-12-04T15:06:59.917Z,49.83
2022-12-04T15:09:47.474Z,51.53
2022-12-04T15:12:35.461Z,49.83
2022-12-04T15:15:12.682Z,45.00
2022-12-04T15:17:40.735Z,45.97
2022-12-04T15:20:11.928Z,49.70
2022-12-04T15:22:40.129Z,48.20
2022-12-04T15:25:17.665Z,48.93
2022-12-04T15:27:47.567Z,45.67
2022-12-04T15:30:19.129Z,48.63
2022-12-04T15:32:49.388Z,45.20
2022-12-04T15:35:22.781Z,44.20
2022-12-04T15:37:50.992Z,44.97
2022-12-04T15:40:24.584Z,48.20
2022-12-04T15:42:53.322Z,46.80
2022-12-04T15:45:31.920Z,45.00
2022-12-04T15:47:59.969Z,47.30
2022-12-04T15:50:30.755Z,46.43
2022-12-04T15:53:02.060Z,45.57
2022-12-04T15:55:34.204Z,45.43
2022-12-04T15:58:05.579Z,43.80
2022-12-04T16:00:36.523Z,43.40
2022-12-04T16:03:08.907Z,41.00
2022-12-04T16:05:37.514Z,45.20
2022-12-04T16:08:24.953Z,41.83
2022-12-04T16:11:01.059Z,44.93
2022-12-04T16:13:31.801Z,47.13
2022-12-04T16:16:01.182Z,45.17
2022-12-04T16:18:29.875Z,50.90
2022-12-04T16:20:58.158Z,43.97
2022-12-04T16:23:26.874Z,41.73
2022-12-04T16:25:55.066Z,45.97
2022-12-04T16:28:24.458Z,43.33
2022-12-04T16:30:53.482Z,43.53
2022-12-04T16:33:21.561Z,43.13
2022-12-04T16:35:50.174Z,47.83
2022-12-04T16:38:18.928Z,46.73
2022-12-04T16:40:48.498Z,46.47
2022-12-04T16:43:18.153Z,42.90
2022-12-04T16:45:50.109Z,44.60
2022-12-04T16:48:18.623Z,44.60
2022-12-04T16:50:47.276Z,46.30
2022-12-04T16:53:18.075Z,44.87
2022-12-04T16:55:47.693Z,45.53
2022-12-04T16:58:16.995Z,45.10
2022-12-04T17:00:51.176Z,43.93
2022-12-04T17:03:24.677Z,42.77
2022-12-04T17:05:52.772Z,44.10
2022-12-04T17:08:20.840Z,50.03
2022-12-04T17:10:49.149Z,50.07
2022-12-04T17:13:18.789Z,44.80
2022-12-04T17:15:48.354Z,44.63
2022-12-04T17:18:21.033Z,45.03
2022-12-04T17:20:49.886Z,42.87
2022-12-04T17:23:18.221Z,49.73
2022-12-04T17:25:46.238Z,44.07
2022-12-04T17:28:14.332Z,48.87
2022-12-04T17:30:45.933Z,41.87
2022-12-04T17:33:15.420Z,46.43
2022-12-04T17:35:44.652Z,49.73
2022-12-04T17:38:12.754Z,44.30
2022-12-04T17:40:40.739Z,43.67
2022-12-04T17:43:08.729Z,44.43
2022-12-04T17:45:36.748Z,42.37
2022-12-04T17:48:04.922Z,42.97
2022-12-04T17:50:34.315Z,47.47
2022-12-04T17:53:02.380Z,44.17
2022-12-04T17:55:30.340Z,42.23
2022-12-04T17:57:58.472Z,44.90
2022-12-04T18:00:26.964Z,43.77
2022-12-04T18:02:55.038Z,42.67
2022-12-04T18:05:23.094Z,44.90
2022-12-04T18:07:52.454Z,45.00
2022-12-04T18:10:20.552Z,43.23
2022-12-04T18:12:48.526Z,46.73
2022-12-04T18:15:16.622Z,38.90
2022-12-04T18:17:44.626Z,42.83
2022-12-04T18:20:13.385Z,48.13
2022-12-04T18:22:41.424Z,44.40
2022-12-04T18:25:11.361Z,45.80
2022-12-04T18:27:42.047Z,48.43
2022-12-04T18:30:10.971Z,41.87
2022-12-04T18:32:38.989Z,45.23
2022-12-04T18:35:07.513Z,40.27
2022-12-04T18:37:35.596Z,46.30
2022-12-04T18:40:06.912Z,43.13
2022-12-04T18:42:36.748Z,44.07
2022-12-04T18:45:05.341Z,41.80
2022-12-04T18:47:33.369Z,41.57
2022-12-04T18:50:01.411Z,44.67
2022-12-04T18:52:29.499Z,45.30
2022-12-04T18:54:57.470Z,50.83
2022-12-04T18:57:25.519Z,45.93
2022-12-04T18:59:55.246Z,45.17
2022-12-04T19:02:23.463Z,44.63
2022-12-04T19:04:51.734Z,43.30
2022-12-04T19:07:20.091Z,41.67
2022-12-04T19:10:20.748Z,45.30
2022-12-04T19:12:36.098Z,45.73
2022-12-04T19:15:06.184Z,46.23
2022-12-04T19:17:34.384Z,45.00
2022-12-04T19:20:02.720Z,45.93
2022-12-04T19:22:30.876Z,42.87
2022-12-04T19:24:59.101Z,45.57
2022-12-04T19:27:27.677Z,46.40
2022-12-04T19:29:56.092Z,45.50
2022-12-04T19:32:26.451Z,43.90
2022-12-04T19:34:54.547Z,47.10
2022-12-04T19:37:22.623Z,51.70
2022-12-04T19:39:50.605Z,43.70
2022-12-04T19:42:18.649Z,40.47
2022-12-04T19:44:49.208Z,45.93
2022-12-04T19:47:18.486Z,43.13
2022-12-04T19:49:47.887Z,43.90
2022-12-04T19:52:16.188Z,45.67
2022-12-04T19:54:44.239Z,45.03
2022-12-04T19:57:12.871Z,42.13
2022-12-04T19:59:45.906Z,46.47
2022-12-04T20:02:14.902Z,42.63
2022-12-04T20:04:43.220Z,40.33
2022-12-04T20:07:12.960Z,41.97
2022-12-04T20:09:41.002Z,40.20
2022-12-04T20:12:09.315Z,41.80
2022-12-04T20:14:37.489Z,45.47
2022-12-04T20:17:05.616Z,40.60
2022-12-04T20:19:33.749Z,44.13
2022-12-04T20:22:01.812Z,45.60
2022-12-04T20:24:31.220Z,40.93
2022-12-04T20:26:59.244Z,44.87
2022-12-04T20:29:27.283Z,42.60
2022-12-04T20:31:55.340Z,40.53
2022-12-04T20:34:23.446Z,40.77
2022-12-04T20:36:51.461Z,45.67
2022-12-04T20:39:20.900Z,45.60
2022-12-04T20:41:50.343Z,42.17
2022-12-04T20:44:20.526Z,41.37
2022-12-04T20:46:49.776Z,46.47
2022-12-04T20:49:22.529Z,42.53
2022-12-04T20:51:52.081Z,47.47
2022-12-04T20:54:21.752Z,43.10
2022-12-04T20:56:53.278Z,44.73
2022-12-04T20:59:23.329Z,42.83
2022-12-04T21:01:52.554Z,42.33
2022-12-04T21:04:20.926Z,47.77
2022-12-04T21:06:49.189Z,45.67
2022-12-04T21:09:19.765Z,42.53
2022-12-04T21:11:50.208Z,41.30
2022-12-04T21:14:39.019Z,40.93
2022-12-04T21:17:09.509Z,37.63
2022-12-04T21:19:38.032Z,37.43
2022-12-04T21:22:06.293Z,40.50
2022-12-04T21:24:38.668Z,39.13
2022-12-04T21:27:09.114Z,39.50
2022-12-04T21:29:39.273Z,38.40
2022-12-04T21:32:09.132Z,36.77
2022-12-04T21:34:37.152Z,39.53
2022-12-04T21:37:05.235Z,38.53
2022-12-04T21:39:33.835Z,40.33
2022-12-04T21:42:19.352Z,34.27
2022-12-04T21:44:48.735Z,36.77
2022-12-04T21:47:16.791Z,34.80
2022-12-04T21:49:45.179Z,38.90
2022-12-04T21:52:13.191Z,39.27
2022-12-04T21:54:41.208Z,33.90
2022-12-04T21:57:09.326Z,34.73
2022-12-04T21:59:37.409Z,34.43
2022-12-04T22:02:07.009Z,35.03
2022-12-04T22:04:35.125Z,35.13
2022-12-04T22:07:03.132Z,34.77
2022-12-04T22:09:31.194Z,37.53
2022-12-04T22:11:59.247Z,34.00
2022-12-04T22:14:27.328Z,34.90
2022-12-04T22:16:55.354Z,36.57
2022-12-04T22:19:24.760Z,37.93
2022-12-04T22:21:52.939Z,35.77
2022-12-04T22:24:21.005Z,38.27
2022-12-04T22:26:49.033Z,36.07
2022-12-04T22:29:48.631Z,39.17
2022-12-04T22:32:05.600Z,39.87
2022-12-04T22:34:35.340Z,36.57
2022-12-04T22:37:03.793Z,37.77
2022-12-04T22:39:33.555Z,39.40
2022-12-04T22:42:01.664Z,40.47
2022-12-04T22:44:29.775Z,37.13
2022-12-04T22:46:57.854Z,38.57
2022-12-04T22:49:25.911Z,39.43
2022-12-04T22:51:55.289Z,37.60
2022-12-04T22:54:23.385Z,39.70
2022-12-04T22:56:51.462Z,38.53
2022-12-04T22:59:19.436Z,36.40
2022-12-04T23:01:47.449Z,36.80
2022-12-04T23:04:15.515Z,34.63
2022-12-04T23:06:43.581Z,41.20
2022-12-04T23:09:15.228Z,36.03
2022-12-04T23:11:44.244Z,32.23
2022-12-04T23:14:14.621Z,37.20
2022-12-04T23:16:43.146Z,35.50
2022-12-04T23:19:14.551Z,35.83
2022-12-04T23:21:42.929Z,39.73
2022-12-04T23:24:13.225Z,34.50
2022-12-04T23:26:43.301Z,36.97
2022-12-04T23:29:29.794Z,36.57
2022-12-04T23:31:59.403Z,35.47
2022-12-04T23:34:28.260Z,35.40
2022-12-04T23:36:56.311Z,36.17
2022-12-04T23:39:25.740Z,33.47
2022-12-04T23:41:53.777Z,36.63
2022-12-04T23:44:21.813Z,39.23
2022-12-04T23:46:49.906Z,37.37
2022-12-04T23:49:18.101Z,36.90
2022-12-04T23:51:46.083Z,38.70
2022-12-04T23:54:14.153Z,39.00
2022-12-04T23:56:43.626Z,39.22
2022-12-04T23:59:11.680Z,42.65
